Time;durP1;ratioP1;P1;durP2;ratioP2;P2;SDS_P1;SDS_P2;PMS_P1;PMS_P2;Temp;Humidity;BMP_temperature;BMP_pressure;BME280_temperature;BME280_humidity;BME280_pressure;Samples;Min_cycle;Max_cycle;Signal;HPM_P1;HPM_P2
2023/04/23 08:43:47;;;;;;;6.00;2.47;;;;;;;-144.57;100.00;62443.72;5034162;28;20137;-68
2023/04/23 08:46:15;;;;;;;6.95;2.20;;;;;;;-144.57;100.00;62443.72;5055824;28;20426;-65
2023/04/23 08:48:43;;;;;;;4.13;2.22;;;;;;;-144.57;100.00;62443.72;5062011;28;20432;-64
2023/04/23 08:51:11;;;;;;;4.15;1.90;;;;;;;-144.57;100.00;62443.72;5044821;28;20635;-65
2023/04/23 08:53:37;;;;;;;4.47;2.08;;;;;;;-144.57;100.00;62443.72;5052373;28;20048;-65
2023/04/23 08:56:05;;;;;;;4.10;1.88;;;;;;;-144.57;100.00;62443.72;5054464;28;20430;-63
2023/04/23 08:58:30;;;;;;;6.88;3.63;;;;;;;-144.57;100.00;62443.72;5041542;28;20132;-64
2023/04/23 09:00:56;;;;;;;9.82;2.42;;;;;;;-144.57;100.00;62443.72;5068995;28;20439;-70
2023/04/23 09:03:24;;;;;;;4.80;1.77;;;;;;;-144.57;100.00;62443.72;5053105;28;20097;-68
2023/04/23 09:05:52;;;;;;;6.97;2.67;;;;;;;-144.57;100.00;62443.72;5065269;28;20138;-70
2023/04/23 09:08:19;;;;;;;3.30;1.80;;;;;;;-144.57;100.00;62443.72;5060787;28;20053;-70
2023/04/23 09:10:46;;;;;;;5.78;2.30;;;;;;;-144.57;100.00;62443.72;5051162;28;20086;-65
2023/04/23 09:13:12;;;;;;;2.55;2.00;;;;;;;-144.57;100.00;62443.72;5053192;28;20094;-71
2023/04/23 09:15:44;;;;;;;3.67;2.10;;;;;;;-144.57;100.00;62443.72;5055827;28;20045;-69
2023/04/23 09:18:10;;;;;;;6.78;2.10;;;;;;;-144.57;100.00;62443.72;5061616;28;20135;-66
2023/04/23 09:20:36;;;;;;;6.13;2.40;;;;;;;-144.57;100.00;62443.72;5067375;28;20506;-65
2023/04/23 09:23:08;;;;;;;4.38;2.50;;;;;;;-144.57;100.00;62443.72;5066542;28;20526;-63
2023/04/23 09:25:34;;;;;;;4.65;2.30;;;;;;;-144.57;100.00;62443.72;5067165;28;20067;-65
2023/04/23 09:28:02;;;;;;;9.57;2.35;;;;;;;-144.57;100.00;62443.72;5057171;28;20036;-64
2023/04/23 09:30:28;;;;;;;9.93;2.47;;;;;;;-144.57;100.00;62443.72;5053092;28;20033;-64
2023/04/23 09:32:54;;;;;;;6.75;2.38;;;;;;;-144.57;100.00;62443.72;5054793;28;20055;-62
2023/04/23 09:35:20;;;;;;;8.13;3.03;;;;;;;-144.57;100.00;62443.72;5009128;28;20044;-63
2023/04/23 09:37:49;;;;;;;11.80;3.08;;;;;;;-144.57;100.00;62443.72;5066378;28;20420;-64
2023/04/23 09:40:21;;;;;;;9.85;2.78;;;;;;;-144.57;100.00;62443.72;5067886;28;20048;-62
2023/04/23 09:42:51;;;;;;;8.60;2.90;;;;;;;-144.57;100.00;62443.72;5065570;28;20039;-65
2023/04/23 09:45:18;;;;;;;8.73;2.97;;;;;;;-144.57;100.00;62443.72;5067494;28;20053;-65
2023/04/23 09:47:52;;;;;;;6.75;2.38;;;;;;;-144.57;100.00;62443.72;5066944;28;20044;-64
2023/04/23 09:50:19;;;;;;;5.72;2.50;;;;;;;-144.57;100.00;62443.72;5053056;28;20029;-64
2023/04/23 09:52:45;;;;;;;7.05;2.72;;;;;;;-144.57;100.00;62443.72;5053582;28;20087;-66
2023/04/23 09:55:10;;;;;;;5.82;2.13;;;;;;;-144.57;100.00;62443.72;5053814;28;20449;-67
2023/04/23 09:57:37;;;;;;;8.48;2.63;;;;;;;-144.57;100.00;62443.72;5053656;28;20075;-65
2023/04/23 10:00:15;;;;;;;6.70;2.38;;;;;;;-144.57;100.00;62443.72;5054491;28;20044;-63
2023/04/23 10:02:48;;;;;;;4.88;2.72;;;;;;;-144.57;100.00;62443.72;5046350;28;20410;-64
2023/04/23 10:05:20;;;;;;;4.95;3.25;;;;;;;-144.57;100.00;62443.72;5067569;28;20106;-65
2023/04/23 10:07:47;;;;;;;8.23;2.85;;;;;;;-144.57;100.00;62443.72;5065193;28;20490;-64
2023/04/23 10:10:15;;;;;;;3.00;2.08;;;;;;;-144.57;100.00;62443.72;5067303;28;20043;-65
2023/04/23 10:12:42;;;;;;;7.60;2.38;;;;;;;-144.57;100.00;62443.72;5066913;28;20055;-65
2023/04/23 10:15:09;;;;;;;6.72;2.50;;;;;;;-144.57;100.00;62443.72;5063895;28;20059;-64
2023/04/23 10:17:36;;;;;;;7.50;2.55;;;;;;;-144.57;100.00;62443.72;5059818;28;20052;-62
2023/04/23 10:20:04;;;;;;;5.47;2.17;;;;;;;-144.57;100.00;62443.72;5025096;28;20048;-63
2023/04/23 10:22:32;;;;;;;9.68;2.38;;;;;;;-144.57;100.00;62443.72;5052909;28;20044;-62
2023/04/23 10:25:00;;;;;;;8.43;2.10;;;;;;;-144.57;100.00;62443.72;5053406;28;20041;-62
2023/04/23 10:27:27;;;;;;;11.10;3.28;;;;;;;-144.57;100.00;62443.72;5051270;28;20037;-62
2023/04/23 10:29:55;;;;;;;7.22;2.70;;;;;;;-144.57;100.00;62443.72;5035642;28;20048;-62
2023/04/23 10:32:22;;;;;;;4.75;2.15;;;;;;;-144.57;100.00;62443.72;5054006;28;20073;-64
2023/04/23 10:34:48;;;;;;;11.15;2.70;;;;;;;-144.57;100.00;62443.72;5063616;28;20083;-63
2023/04/23 10:37:14;;;;;;;4.88;2.13;;;;;;;-144.57;100.00;62443.72;5065252;28;20056;-64
2023/04/23 10:39:43;;;;;;;8.30;2.10;;;;;;;-144.57;100.00;62443.72;5032598;28;20086;-63
2023/04/23 10:42:09;;;;;;;5.57;2.17;;;;;;;-144.57;100.00;62443.72;5050378;28;20089;-65
2023/04/23 10:44:38;;;;;;;5.13;2.40;;;;;;;-144.57;100.00;62443.72;5046993;28;20421;-62
2023/04/23 10:47:05;;;;;;;5.63;2.20;;;;;;;-144.57;100.00;62443.72;5072584;28;20052;-65
2023/04/23 10:49:33;;;;;;;3.47;2.33;;;;;;;-144.57;100.00;62443.72;5066503;28;20079;-65
2023/04/23 10:52:00;;;;;;;7.55;2.55;;;;;;;-144.57;100.00;62443.72;5060218;28;20119;-64
2023/04/23 10:54:33;;;;;;;4.80;2.03;;;;;;;-144.57;100.00;62443.72;5052608;28;20095;-67
2023/04/23 10:57:06;;;;;;;6.07;2.17;;;;;;;-144.57;100.00;62443.72;5053263;28;20453;-68
2023/04/23 10:59:58;;;;;;;7.65;2.53;;;;;;;-144.57;100.00;62443.72;5061125;28;20045;-66
2023/04/23 11:02:25;;;;;;;5.72;2.00;;;;;;;-144.57;100.00;62443.72;5055546;28;20064;-67
2023/04/23 11:05:00;;;;;;;6.50;2.30;;;;;;;-144.57;100.00;62443.72;5056231;28;20375;-67
2023/04/23 11:07:30;;;;;;;5.18;2.10;;;;;;;-144.57;100.00;62443.72;5063228;28;20047;-67
2023/04/23 11:09:59;;;;;;;6.10;1.90;;;;;;;-144.57;100.00;62443.72;5063489;28;20238;-63
2023/04/23 11:12:25;;;;;;;3.03;2.28;;;;;;;-144.57;100.00;62443.72;5055372;28;20045;-63
2023/04/23 11:14:53;;;;;;;8.82;2.40;;;;;;;-144.57;100.00;62443.72;5056372;28;20095;-64
2023/04/23 11:17:31;;;;;;;5.15;2.38;;;;;;;-144.57;100.00;62443.72;5062357;28;20040;-65
2023/04/23 11:20:21;;;;;;;9.73;2.40;;;;;;;-144.57;100.00;62443.72;5068314;28;20086;-65
2023/04/23 11:22:51;;;;;;;9.93;2.55;;;;;;;-144.57;100.00;62443.72;5018707;28;20132;-66
2023/04/23 11:25:29;;;;;;;4.85;2.35;;;;;;;-144.57;100.00;62443.72;5045729;28;20033;-64
2023/04/23 11:27:57;;;;;;;8.75;2.53;;;;;;;-144.57;100.00;62443.72;5060347;28;20041;-66
2023/04/23 11:30:26;;;;;;;5.03;2.40;;;;;;;-144.57;100.00;62443.72;5069900;28;20044;-66
2023/04/23 11:32:53;;;;;;;4.55;2.47;;;;;;;-144.57;100.00;62443.72;5066386;28;20052;-66
2023/04/23 11:35:21;;;;;;;5.50;2.25;;;;;;;-144.57;100.00;62443.72;5029255;28;20083;-65
2023/04/23 11:37:48;;;;;;;5.00;2.10;;;;;;;-144.57;100.00;62443.72;5041243;28;20127;-66
2023/04/23 11:40:19;;;;;;;4.55;2.25;;;;;;;-144.57;100.00;62443.72;5072650;28;20090;-65
2023/04/23 11:42:53;;;;;;;5.57;2.22;;;;;;;-144.57;100.00;62443.72;5065843;28;20102;-65
2023/04/23 11:45:27;;;;;;;4.75;3.25;;;;;;;-144.57;100.00;62443.72;5068128;28;20399;-67
2023/04/23 11:47:56;;;;;;;5.70;2.67;;;;;;;-144.57;100.00;62443.72;5055987;28;20037;-66
2023/04/23 11:50:26;;;;;;;8.55;2.80;;;;;;;-144.57;100.00;62443.72;5061728;28;20036;-67
2023/04/23 11:52:53;;;;;;;8.77;2.90;;;;;;;-144.57;100.00;62443.72;5065928;28;20131;-66
2023/04/23 11:55:20;;;;;;;6.95;2.67;;;;;;;-144.57;100.00;62443.72;5003425;28;20418;-66
2023/04/23 11:57:48;;;;;;;5.10;2.15;;;;;;;-144.57;100.00;62443.72;5054855;28;20206;-69
2023/04/23 12:00:20;;;;;;;4.32;2.63;;;;;;;-144.57;100.00;62443.72;5055645;28;20442;-66
2023/04/23 12:03:05;;;;;;;5.00;2.45;;;;;;;-144.57;100.00;62443.72;5053635;28;20080;-69
2023/04/23 12:05:36;;;;;;;5.90;2.50;;;;;;;-144.57;100.00;62443.72;5019006;28;20040;-73
2023/04/23 12:08:09;;;;;;;3.33;2.17;;;;;;;-144.57;100.00;62443.72;5067774;28;20040;-72
2023/04/23 12:10:47;;;;;;;2.47;2.00;;;;;;;-144.57;100.00;62443.72;5061631;28;20032;-72
2023/04/23 12:13:22;;;;;;;5.82;2.88;;;;;;;-144.57;100.00;62443.72;5068494;28;20048;-71
2023/04/23 12:15:50;;;;;;;11.30;3.10;;;;;;;-144.57;100.00;62443.72;5068327;28;20355;-70
2023/04/23 12:18:16;;;;;;;5.18;2.50;;;;;;;-144.57;100.00;62443.72;5069365;28;20125;-70
2023/04/23 12:20:43;;;;;;;6.60;2.70;;;;;;;-144.57;100.00;62443.72;5034202;28;20524;-72
2023/04/23 12:23:09;;;;;;;4.45;2.45;;;;;;;-144.57;100.00;62443.72;5066647;28;20045;-72
2023/04/23 12:25:35;;;;;;;4.20;2.30;;;;;;;-144.57;100.00;62443.72;5066658;28;20524;-68
2023/04/23 12:28:03;;;;;;;5.03;2.42;;;;;;;-144.57;100.00;62443.72;5064304;28;20107;-74
2023/04/23 12:30:31;;;;;;;11.40;2.90;;;;;;;-144.57;100.00;62443.72;5049792;28;20036;-71
2023/04/23 12:33:05;;;;;;;4.00;2.33;;;;;;;-144.57;100.00;62443.72;5056224;28;20045;-72
2023/04/23 12:35:57;;;;;;;8.10;2.58;;;;;;;-144.57;100.00;62443.72;5053464;28;20043;-70
2023/04/23 12:38:27;;;;;;;6.35;2.42;;;;;;;-144.57;100.00;62443.72;5061900;28;20490;-65
2023/04/23 12:40:53;;;;;;;;;;;;;;;-144.57;100.00;62443.72;5067487;28;20048;-66
2023/04/23 12:43:19;;;;;;;3.88;2.55;;;;;;;-144.57;100.00;62443.72;5066973;28;19928;-69
2023/04/23 12:45:45;;;;;;;4.28;2.55;;;;;;;-144.57;100.00;62443.72;5039605;28;20055;-73
2023/04/23 12:48:12;;;;;;;7.90;2.55;;;;;;;-144.57;100.00;62443.72;5066120;28;20044;-76
2023/04/23 12:50:38;;;;;;;4.53;2.50;;;;;;;-144.57;100.00;62443.72;5068796;28;20085;-69
2023/04/23 12:53:04;;;;;;;7.15;3.08;;;;;;;-144.57;100.00;62443.72;5065025;28;20045;-68
2023/04/23 12:55:30;;;;;;;5.70;2.70;;;;;;;-144.57;100.00;62443.72;5067734;28;20039;-69
2023/04/23 12:57:57;;;;;;;6.22;2.95;;;;;;;-144.57;100.00;62443.72;5065952;28;20390;-66
2023/04/23 13:00:23;;;;;;;4.88;2.97;;;;;;;-144.57;100.00;62443.72;5066731;28;20585;-64
2023/04/23 13:02:49;;;;;;;3.45;2.63;;;;;;;-144.57;100.00;62443.72;5065481;28;20123;-67
2023/04/23 13:05:14;;;;;;;3.60;2.35;;;;;;;-144.57;100.00;62443.72;5063369;28;20615;-64
2023/04/23 13:07:41;;;;;;;6.40;2.67;;;;;;;-144.57;100.00;62443.72;5062523;28;20068;-63
2023/04/23 13:10:07;;;;;;;8.73;3.35;;;;;;;-144.57;100.00;62443.72;5052111;28;20094;-66
2023/04/23 13:12:33;;;;;;;6.40;2.70;;;;;;;-144.57;100.00;62443.72;5051669;28;20521;-65
2023/04/23 13:14:59;;;;;;;8.65;3.10;;;;;;;-144.57;100.00;62443.72;5019440;28;20059;-69
2023/04/23 13:17:25;;;;;;;14.13;7.03;;;;;;;-144.57;100.00;62443.72;5035561;28;20072;-63
2023/04/23 13:19:54;;;;;;;9.05;3.28;;;;;;;-144.57;100.00;62443.72;5052803;28;20064;-67
2023/04/23 13:22:21;;;;;;;7.00;2.83;;;;;;;-144.57;100.00;62443.72;5046647;28;20044;-69
2023/04/23 13:24:47;;;;;;;4.25;2.60;;;;;;;-144.57;100.00;62443.72;5055186;28;20040;-69
2023/04/23 13:27:13;;;;;;;5.78;3.50;;;;;;;-144.57;100.00;62443.72;5053772;28;20036;-71
2023/04/23 13:29:39;;;;;;;7.00;2.70;;;;;;;-144.57;100.00;62443.72;5018784;28;20521;-70
2023/04/23 13:32:05;;;;;;;9.30;2.70;;;;;;;-144.57;100.00;62443.72;5052248;28;20044;-68
2023/04/23 13:34:32;;;;;;;5.25;3.10;;;;;;;-144.57;100.00;62443.72;5051615;28;20159;-64
2023/04/23 13:37:04;;;;;;;5.88;3.00;;;;;;;-144.57;100.00;62443.72;5052817;28;20025;-63
2023/04/23 13:39:31;;;;;;;4.05;2.90;;;;;;;-144.57;100.00;62443.72;5054950;28;20517;-66
2023/04/23 13:41:57;;;;;;;6.13;2.80;;;;;;;-144.57;100.00;62443.72;5064848;28;20058;-68
2023/04/23 13:44:22;;;;;;;10.98;3.25;;;;;;;-144.57;100.00;62443.72;5065959;28;20099;-65
2023/04/23 13:46:49;;;;;;;5.35;2.75;;;;;;;-144.57;100.00;62443.72;5065816;28;20108;-65
2023/04/23 13:49:14;;;;;;;13.68;3.65;;;;;;;-144.57;100.00;62443.72;5065606;28;20428;-66
2023/04/23 13:51:40;;;;;;;5.75;2.67;;;;;;;-144.57;100.00;62443.72;5066001;28;20036;-68
2023/04/23 13:54:06;;;;;;;8.23;2.90;;;;;;;-144.57;100.00;62443.72;5049903;28;20040;-69
2023/04/23 13:56:32;;;;;;;6.88;3.10;;;;;;;-144.57;100.00;62443.72;5034877;28;20068;-64
2023/04/23 13:59:02;;;;;;;10.75;3.45;;;;;;;-144.57;100.00;62443.72;5053644;28;20119;-64
2023/04/23 14:01:28;;;;;;;5.78;3.20;;;;;;;-144.57;100.00;62443.72;5052698;28;20037;-65
2023/04/23 14:03:55;;;;;;;11.02;3.38;;;;;;;-144.57;100.00;62443.72;5054003;28;20048;-67
2023/04/23 14:06:22;;;;;;;8.38;3.08;;;;;;;-144.57;100.00;62443.72;5051495;28;21119;-66
2023/04/23 14:08:47;;;;;;;7.00;2.58;;;;;;;-144.57;100.00;62443.72;5052927;28;20052;-66
2023/04/23 14:11:13;;;;;;;5.22;2.80;;;;;;;-144.57;100.00;62443.72;5053414;28;20040;-67
2023/04/23 14:13:39;;;;;;;4.38;2.55;;;;;;;-144.57;100.00;62443.72;5051037;28;20136;-66
2023/04/23 14:16:05;;;;;;;6.10;2.80;;;;;;;-144.57;100.00;62443.72;5057333;28;20033;-66
2023/04/23 14:18:30;;;;;;;4.85;2.80;;;;;;;-144.57;100.00;62443.72;5067310;28;20036;-65
2023/04/23 14:20:56;;;;;;;4.57;2.53;;;;;;;-144.57;100.00;62443.72;5065102;28;20056;-66
2023/04/23 14:23:22;;;;;;;6.13;3.35;;;;;;;-144.57;100.00;62443.72;5065968;28;20036;-65
2023/04/23 14:25:53;;;;;;;15.10;3.42;;;;;;;-144.57;100.00;62443.72;5066120;28;20056;-66
2023/04/23 14:28:39;;;;;;;9.30;3.40;;;;;;;-144.57;100.00;62443.72;5065394;28;20040;-65
2023/04/23 14:31:06;;;;;;;7.75;2.92;;;;;;;-144.57;100.00;62443.72;5053631;28;20047;-67
2023/04/23 14:33:31;;;;;;;7.70;2.88;;;;;;;-144.57;100.00;62443.72;5056899;28;20044;-67
2023/04/23 14:35:57;;;;;;;5.50;2.72;;;;;;;-144.57;100.00;62443.72;5067233;28;20461;-67
2023/04/23 14:38:25;;;;;;;9.48;3.33;;;;;;;-144.57;100.00;62443.72;5065190;28;20573;-63
2023/04/23 14:40:51;;;;;;;7.25;3.17;;;;;;;-144.57;100.00;62443.72;5073530;28;20115;-71
2023/04/23 14:43:17;;;;;;;4.50;2.72;;;;;;;-144.57;100.00;62443.72;5065592;28;20052;-68
2023/04/23 14:45:43;;;;;;;5.15;2.92;;;;;;;-144.57;100.00;62443.72;5073699;28;20056;-69
2023/04/23 14:48:09;;;;;;;8.50;3.08;;;;;;;-144.57;100.00;62443.72;5042847;28;20033;-66
2023/04/23 14:50:35;;;;;;;5.50;2.63;;;;;;;-144.57;100.00;62443.72;5071731;28;20509;-67
2023/04/23 14:53:03;;;;;;;4.20;2.45;;;;;;;-144.57;100.00;62443.72;5073481;28;20044;-65
2023/04/23 14:55:29;;;;;;;4.10;2.58;;;;;;;-144.57;100.00;62443.72;5072729;28;20090;-66
2023/04/23 14:57:55;;;;;;;4.95;2.90;;;;;;;-144.57;100.00;62443.72;5072053;28;20498;-71
2023/04/23 15:00:21;;;;;;;5.22;2.55;;;;;;;-144.57;100.00;62443.72;5071418;28;20043;-67
2023/04/23 15:02:47;;;;;;;5.00;2.45;;;;;;;-144.57;100.00;62443.72;5070220;28;20121;-65
2023/04/23 15:05:14;;;;;;;7.93;2.90;;;;;;;-144.57;100.00;62443.72;5054555;28;20497;-66
2023/04/23 15:07:40;;;;;;;5.63;2.83;;;;;;;-144.57;100.00;62443.72;5061723;28;20548;-66
2023/04/23 15:10:08;;;;;;;6.38;3.13;;;;;;;-144.57;100.00;62443.72;5067081;28;20076;-67
2023/04/23 15:12:40;;;;;;;6.68;2.70;;;;;;;-144.57;100.00;62443.72;5069730;28;20044;-67
2023/04/23 15:15:34;;;;;;;7.35;2.90;;;;;;;-144.57;100.00;62443.72;5065889;28;20048;-68
2023/04/23 15:17:59;;;;;;;6.75;2.85;;;;;;;-144.57;100.00;62443.72;5068750;28;20524;-70
2023/04/23 15:20:25;;;;;;;8.20;2.92;;;;;;;-144.57;100.00;62443.72;5069934;28;20067;-70
2023/04/23 15:22:51;;;;;;;4.20;2.80;;;;;;;-144.57;100.00;62443.72;5066711;28;20101;-66
2023/04/23 15:25:17;;;;;;;8.15;2.90;;;;;;;-144.57;100.00;62443.72;5055973;28;20072;-66
2023/04/23 15:27:43;;;;;;;6.13;2.65;;;;;;;-144.57;100.00;62443.72;5053517;28;20069;-69
2023/04/23 15:30:10;;;;;;;4.63;2.72;;;;;;;-144.57;100.00;62443.72;5055321;28;20044;-65
2023/04/23 15:32:36;;;;;;;5.63;3.08;;;;;;;-144.57;100.00;62443.72;5054183;28;20272;-68
2023/04/23 15:35:01;;;;;;;9.10;2.90;;;;;;;-144.57;100.00;62443.72;5056312;28;20041;-68
2023/04/23 15:37:29;;;;;;;6.07;2.83;;;;;;;-144.57;100.00;62443.72;5054239;28;20068;-67
2023/04/23 15:39:57;;;;;;;11.50;2.50;;;;;;;-144.57;100.00;62443.72;5054577;28;20068;-67
2023/04/23 15:42:23;;;;;;;3.85;2.83;;;;;;;-144.57;100.00;62443.72;5053870;28;20035;-65
2023/04/23 15:44:53;;;;;;;10.52;3.08;;;;;;;-144.57;100.00;62443.72;5058616;28;20124;-67
2023/04/23 15:47:21;;;;;;;8.02;3.47;;;;;;;-144.57;100.00;62443.72;5075853;28;20532;-67
2023/04/23 15:49:47;;;;;;;13.90;3.53;;;;;;;-144.57;100.00;62443.72;5085484;28;20055;-66
2023/04/23 15:52:14;;;;;;;5.90;3.20;;;;;;;-144.57;100.00;62443.72;5067039;28;20529;-68
2023/04/23 15:54:40;;;;;;;4.57;3.08;;;;;;;-144.57;100.00;62443.72;5067935;28;20040;-65
2023/04/23 15:57:05;;;;;;;7.15;2.95;;;;;;;-144.57;100.00;62443.72;5067077;28;20090;-66
2023/04/23 15:59:31;;;;;;;6.22;3.13;;;;;;;-144.57;100.00;62443.72;5069270;28;20044;-67
2023/04/23 16:01:57;;;;;;;5.57;3.15;;;;;;;-144.57;100.00;62443.72;5067168;28;20283;-68
2023/04/23 16:04:23;;;;;;;8.10;3.40;;;;;;;-144.57;100.00;62443.72;5067647;28;20062;-68
2023/04/23 16:06:48;;;;;;;5.88;3.15;;;;;;;-144.57;100.00;62443.72;5067560;28;20040;-66
2023/04/23 16:09:14;;;;;;;8.70;3.15;;;;;;;-144.57;100.00;62443.72;5067382;28;20132;-67
2023/04/23 16:11:42;;;;;;;10.40;3.47;;;;;;;-144.57;100.00;62443.72;5068688;28;20051;-64
2023/04/23 16:14:08;;;;;;;17.55;4.15;;;;;;;-144.57;100.00;62443.72;5067680;28;20053;-67
2023/04/23 16:16:34;;;;;;;12.52;3.80;;;;;;;-144.57;100.00;62443.72;5068988;28;20127;-66
2023/04/23 16:19:01;;;;;;;11.27;3.70;;;;;;;-144.57;100.00;62443.72;5067959;28;20047;-66
2023/04/23 16:21:27;;;;;;;13.00;4.35;;;;;;;-144.57;100.00;62443.72;5054521;28;20082;-65
2023/04/23 16:23:53;;;;;;;10.57;3.83;;;;;;;-144.57;100.00;62443.72;5054717;28;20036;-64
2023/04/23 16:26:19;;;;;;;12.45;4.57;;;;;;;-144.57;100.00;62443.72;5036928;28;20043;-65
2023/04/23 16:28:45;;;;;;;6.07;3.60;;;;;;;-144.57;100.00;62443.72;5069040;28;20468;-65
2023/04/23 16:31:11;;;;;;;10.93;3.90;;;;;;;-144.57;100.00;62443.72;5065851;28;20062;-65
2023/04/23 16:33:39;;;;;;;6.50;3.58;;;;;;;-144.57;100.00;62443.72;5067309;28;20122;-63
2023/04/23 16:36:05;;;;;;;12.32;3.72;;;;;;;-144.57;100.00;62443.72;5065357;28;20040;-66
2023/04/23 16:38:31;;;;;;;5.78;3.78;;;;;;;-144.57;100.00;62443.72;5068733;28;20057;-65
2023/04/23 16:40:56;;;;;;;11.98;4.07;;;;;;;-144.57;100.00;62443.72;5066761;28;20075;-65
2023/04/23 16:43:22;;;;;;;9.93;4.00;;;;;;;-144.57;100.00;62443.72;5068040;28;20040;-67
2023/04/23 16:45:48;;;;;;;8.98;4.00;;;;;;;-144.57;100.00;62443.72;5068341;28;20032;-64
2023/04/23 16:48:15;;;;;;;9.32;4.30;;;;;;;-144.57;100.00;62443.72;5066997;28;20524;-66
2023/04/23 16:50:43;;;;;;;8.18;3.88;;;;;;;-144.57;100.00;62443.72;5067004;28;20305;-67
2023/04/23 16:53:08;;;;;;;8.48;4.45;;;;;;;-144.57;100.00;62443.72;5066381;28;20057;-67
2023/04/23 16:55:36;;;;;;;12.75;4.47;;;;;;;-144.57;100.00;62443.72;5067947;28;20497;-65
2023/04/23 16:58:03;;;;;;;19.85;4.80;;;;;;;-144.57;100.00;62443.72;5054352;28;20053;-64
2023/04/23 17:00:28;;;;;;;6.50;3.92;;;;;;;-144.57;100.00;62443.72;5053654;28;20453;-67
2023/04/23 17:02:54;;;;;;;7.32;4.03;;;;;;;-144.57;100.00;62443.72;5053693;28;20055;-69
2023/04/23 17:05:23;;;;;;;9.13;4.65;;;;;;;-144.57;100.00;62443.72;5059265;28;20139;-66
2023/04/23 17:07:51;;;;;;;11.00;4.23;;;;;;;-144.57;100.00;62443.72;5055418;28;20045;-65
2023/04/23 17:10:18;;;;;;;8.75;4.35;;;;;;;-144.57;100.00;62443.72;5054203;28;20029;-66
2023/04/23 17:12:44;;;;;;;10.65;4.43;;;;;;;-144.57;100.00;62443.72;5063825;28;20090;-65
2023/04/23 17:15:10;;;;;;;9.43;4.03;;;;;;;-144.57;100.00;62443.72;5060076;28;20082;-66
2023/04/23 17:17:37;;;;;;;10.65;4.10;;;;;;;-144.57;100.00;62443.72;5051633;28;20047;-68
2023/04/23 17:20:06;;;;;;;13.48;4.45;;;;;;;-144.57;100.00;62443.72;5033468;28;20090;-69
2023/04/23 17:22:33;;;;;;;12.05;4.20;;;;;;;-144.57;100.00;62443.72;5037186;28;20037;-68
2023/04/23 17:24:59;;;;;;;8.60;4.47;;;;;;;-144.57;100.00;62443.72;5040895;28;20036;-67
2023/04/23 17:27:25;;;;;;;10.93;4.20;;;;;;;-144.57;100.00;62443.72;5049490;28;20040;-67
2023/04/23 17:29:51;;;;;;;7.70;4.50;;;;;;;-144.57;100.00;62443.72;5066081;28;20085;-68
2023/04/23 17:32:17;;;;;;;14.60;4.53;;;;;;;-144.57;100.00;62443.72;5059617;28;20044;-68
2023/04/23 17:34:45;;;;;;;8.57;4.40;;;;;;;-144.57;100.00;62443.72;5046713;28;20128;-64
2023/04/23 17:37:11;;;;;;;12.55;5.15;;;;;;;-144.57;100.00;62443.72;5059827;28;20037;-63
2023/04/23 17:39:37;;;;;;;10.73;5.07;;;;;;;-144.57;100.00;62443.72;5051071;28;20103;-65
2023/04/23 17:42:05;;;;;;;12.27;4.70;;;;;;;-144.57;100.00;62443.72;5068847;28;20068;-61
2023/04/23 17:44:31;;;;;;;8.23;4.80;;;;;;;-144.57;100.00;62443.72;5071177;28;20324;-64
2023/04/23 17:46:56;;;;;;;12.63;5.15;;;;;;;-144.57;100.00;62443.72;5070268;28;20502;-63
2023/04/23 17:49:22;;;;;;;8.15;4.43;;;;;;;-144.57;100.00;62443.72;5070786;28;20047;-64
2023/04/23 17:51:48;;;;;;;8.65;4.70;;;;;;;-144.57;100.00;62443.72;5069441;28;20064;-64
2023/04/23 17:54:14;;;;;;;11.55;4.95;;;;;;;-144.57;100.00;62443.72;5052794;28;20053;-65
2023/04/23 17:56:40;;;;;;;9.45;5.20;;;;;;;-144.57;100.00;62443.72;5050467;28;20617;-64
2023/04/23 17:59:07;;;;;;;12.75;4.72;;;;;;;-144.57;100.00;62443.72;5033394;28;20041;-66
2023/04/23 18:01:33;;;;;;;12.77;5.25;;;;;;;-144.57;100.00;62443.72;5032853;28;20037;-66
2023/04/23 18:03:59;;;;;;;10.27;4.60;;;;;;;-144.57;100.00;62443.72;5048607;28;20514;-64
2023/04/23 18:06:25;;;;;;;16.95;5.60;;;;;;;-144.57;100.00;62443.72;5050742;28;20044;-64
2023/04/23 18:08:51;;;;;;;9.45;4.45;;;;;;;-144.57;100.00;62443.72;5032942;28;20045;-65
2023/04/23 18:11:17;;;;;;;8.23;4.82;;;;;;;-144.57;100.00;62443.72;5064357;28;20052;-65
2023/04/23 18:13:43;;;;;;;10.23;4.90;;;;;;;-144.57;100.00;62443.72;5059088;28;20522;-66
2023/04/23 18:16:09;;;;;;;8.18;4.40;;;;;;;-144.57;100.00;62443.72;5056071;28;20041;-67
2023/04/23 18:18:35;;;;;;;15.30;5.07;;;;;;;-144.57;100.00;62443.72;5062335;28;20522;-66
2023/04/23 18:21:00;;;;;;;9.95;5.43;;;;;;;-144.57;100.00;62443.72;5058104;28;20041;-66
2023/04/23 18:23:26;;;;;;;13.23;5.38;;;;;;;-144.57;100.00;62443.72;5055404;28;20060;-67
2023/04/23 18:25:52;;;;;;;12.48;5.28;;;;;;;-144.57;100.00;62443.72;5054782;28;20070;-68
2023/04/23 18:28:18;;;;;;;11.25;5.68;;;;;;;-144.57;100.00;62443.72;5057926;28;20094;-70
2023/04/23 18:30:44;;;;;;;10.93;5.10;;;;;;;-144.57;100.00;62443.72;5056244;28;20545;-71
2023/04/23 18:33:32;;;;;;;8.90;4.88;;;;;;;-144.57;100.00;62443.72;5057697;28;20107;-68
2023/04/23 18:36:04;;;;;;;21.80;5.78;;;;;;;-144.57;100.00;62443.72;5051234;28;20233;-68
2023/04/23 18:38:44;;;;;;;14.68;7.70;;;;;;;-144.57;100.00;62443.72;5020248;28;20071;-68
2023/04/23 18:41:10;;;;;;;17.95;6.03;;;;;;;-144.57;100.00;62443.72;5028840;28;20074;-66
2023/04/23 18:43:36;;;;;;;18.25;6.05;;;;;;;-144.57;100.00;62443.72;5056528;28;20404;-67
2023/04/23 18:46:02;;;;;;;17.05;5.72;;;;;;;-144.57;100.00;62443.72;5066187;28;20033;-65
2023/04/23 18:48:34;;;;;;;19.40;6.40;;;;;;;-144.57;100.00;62443.72;5036143;28;20055;-66
2023/04/23 18:51:11;;;;;;;16.10;5.45;;;;;;;-144.57;100.00;62443.72;5054385;28;20047;-66
2023/04/23 18:53:38;;;;;;;15.60;6.50;;;;;;;-144.57;100.00;62443.72;5054624;28;20298;-66
2023/04/23 18:56:04;;;;;;;22.65;6.47;;;;;;;-144.57;100.00;62443.72;5056922;28;20041;-65
2023/04/23 18:58:34;;;;;;;15.15;5.75;;;;;;;-144.57;100.00;62443.72;5038029;28;20083;-68
2023/04/23 19:01:00;;;;;;;11.55;4.40;;;;;;;-144.57;100.00;62443.72;5056569;28;20040;-68
2023/04/23 19:03:28;;;;;;;18.95;5.65;;;;;;;-144.57;100.00;62443.72;5022903;28;20374;-66
2023/04/23 19:05:54;;;;;;;14.40;5.70;;;;;;;-144.57;100.00;62443.72;5050499;28;20151;-65
2023/04/23 19:08:21;;;;;;;21.27;6.18;;;;;;;-144.57;100.00;62443.72;5053235;28;20487;-67
2023/04/23 19:10:47;;;;;;;23.15;6.18;;;;;;;-144.57;100.00;62443.72;5067821;28;20032;-64
2023/04/23 19:13:13;;;;;;;18.60;6.70;;;;;;;-144.57;100.00;62443.72;5070652;28;20059;-69
2023/04/23 19:15:40;;;;;;;13.90;6.40;;;;;;;-144.57;100.00;62443.72;5054077;28;20029;-68
2023/04/23 19:18:07;;;;;;;18.77;6.68;;;;;;;-144.57;100.00;62443.72;5050725;28;20118;-68
2023/04/23 19:20:33;;;;;;;15.90;6.72;;;;;;;-144.57;100.00;62443.72;5042216;28;20509;-67
2023/04/23 19:22:59;;;;;;;17.98;6.70;;;;;;;-144.57;100.00;62443.72;5066611;28;20498;-69
2023/04/23 19:25:25;;;;;;;18.65;6.15;;;;;;;-144.57;100.00;62443.72;5065338;28;20051;-68
2023/04/23 19:27:50;;;;;;;16.05;6.32;;;;;;;-144.57;100.00;62443.72;5068216;28;20048;-68
2023/04/23 19:30:17;;;;;;;14.95;6.40;;;;;;;-144.57;100.00;62443.72;5054277;28;20036;-68
2023/04/23 19:32:44;;;;;;;18.58;8.65;;;;;;;-144.57;100.00;62443.72;5019993;28;20041;-68
2023/04/23 19:35:11;;;;;;;23.00;8.32;;;;;;;-144.57;100.00;62443.72;5037711;28;20073;-67
2023/04/23 19:37:37;;;;;;;17.42;7.00;;;;;;;-144.57;100.00;62443.72;5019271;28;20033;-68
2023/04/23 19:40:05;;;;;;;15.48;6.47;;;;;;;-144.57;100.00;62443.72;5050433;28;20074;-67
2023/04/23 19:42:32;;;;;;;11.15;5.55;;;;;;;-144.57;100.00;62443.72;5072308;28;20045;-69
2023/04/23 19:44:58;;;;;;;15.25;6.43;;;;;;;-144.57;100.00;62443.72;5040779;28;20501;-69
2023/04/23 19:47:24;;;;;;;25.52;7.57;;;;;;;-144.57;100.00;62443.72;5072272;28;20054;-71
2023/04/23 19:49:50;;;;;;;15.65;6.68;;;;;;;-144.57;100.00;62443.72;5073421;28;20041;-71
2023/04/23 19:52:19;;;;;;;15.73;6.15;;;;;;;-144.57;100.00;62443.72;5073292;28;20056;-70